Time;durP1;ratioP1;P1;durP2;ratioP2;P2;SDS_P1;SDS_P2;PMS_P1;PMS_P2;Temp;Humidity;BMP_temperature;BMP_pressure;BME280_temperature;BME280_humidity;BME280_pressure;Samples;Min_cycle;Max_cycle;Signal;HPM_P1;HPM_P2
2022/04/07 00:01:34;;;;;;;5.67;2.80;;;;;;;12.09;70.86;99031.50;5103091;27;20388;-67
2022/04/07 00:04:02;;;;;;;3.93;2.27;;;;;;;12.09;70.67;99018.22;5108524;28;20290;-67
2022/04/07 00:06:30;;;;;;;4.70;2.20;;;;;;;11.95;71.30;99012.00;5107944;27;20203;-67
2022/04/07 00:09:01;;;;;;;3.70;2.30;;;;;;;11.86;72.03;98999.03;5100276;28;20233;-68
2022/04/07 00:11:29;;;;;;;6.63;2.43;;;;;;;11.97;71.50;99003.81;5103772;27;20202;-67
2022/04/07 00:13:58;;;;;;;3.63;2.33;;;;;;;11.74;72.17;98987.25;5102653;27;20581;-67
2022/04/07 00:16:26;;;;;;;5.23;2.63;;;;;;;11.90;71.19;98963.91;5104491;27;20224;-67
2022/04/07 00:18:54;;;;;;;4.30;2.27;;;;;;;11.91;71.70;98972.72;5101869;27;20730;-67
2022/04/07 00:21:26;;;;;;;5.90;2.30;;;;;;;11.70;72.27;98981.50;5102734;28;20300;-67
2022/04/07 00:23:54;;;;;;;4.90;2.20;;;;;;;11.50;73.12;98981.31;5102619;27;20205;-67
2022/04/07 00:26:22;;;;;;;3.27;1.83;;;;;;;11.52;73.23;98979.28;5102697;28;20212;-67
2022/04/07 00:28:51;;;;;;;4.03;2.30;;;;;;;11.68;72.38;98976.41;5103711;27;20213;-68
2022/04/07 00:31:20;;;;;;;4.73;2.07;;;;;;;11.66;72.44;98974.94;5103010;27;20248;-68
2022/04/07 00:33:48;;;;;;;4.10;1.93;;;;;;;11.81;71.47;98978.34;5101428;27;20740;-68
2022/04/07 00:36:15;;;;;;;3.53;2.20;;;;;;;11.49;73.34;98971.72;5105180;27;20227;-68
2022/04/07 00:38:43;;;;;;;3.57;2.30;;;;;;;11.76;71.76;98959.53;5103679;27;20277;-68
2022/04/07 00:41:12;;;;;;;3.17;1.90;;;;;;;11.82;71.61;98948.13;5105562;27;20295;-68
2022/04/07 00:43:39;;;;;;;3.90;2.10;;;;;;;11.62;72.45;98958.56;5104085;27;20212;-68
2022/04/07 00:46:07;;;;;;;2.77;1.83;;;;;;;11.66;72.39;98967.78;5106172;27;20210;-68
2022/04/07 00:48:36;;;;;;;3.27;1.77;;;;;;;11.80;71.44;98949.31;5105414;27;20316;-67
2022/04/07 00:51:18;;;;;;;3.90;1.97;;;;;;;11.59;72.29;98964.25;5100835;27;20209;-67
2022/04/07 00:53:46;;;;;;;5.00;2.03;;;;;;;11.71;71.75;98953.91;5104381;27;20573;-68
2022/04/07 00:56:14;;;;;;;4.20;1.63;;;;;;;11.61;72.10;98948.13;5105178;27;20210;-68
2022/04/07 00:58:44;;;;;;;3.53;1.93;;;;;;;11.71;71.91;98951.28;5101032;27;20236;-68
2022/04/07 01:01:16;;;;;;;3.00;1.77;;;;;;;11.65;71.97;98947.56;5103544;27;20213;-67
2022/04/07 01:03:52;;;;;;;4.03;1.90;;;;;;;11.75;71.44;98943.78;5102651;27;20239;-68
2022/04/07 01:06:25;;;;;;;2.97;1.77;;;;;;;11.64;71.92;98935.28;5105104;27;20209;-68
2022/04/07 01:08:53;;;;;;;5.90;1.80;;;;;;;11.81;70.99;98922.59;5103961;27;20216;-68
2022/04/07 01:11:20;;;;;;;5.13;1.87;;;;;;;11.87;70.61;98924.50;5104538;27;20216;-68
2022/04/07 01:13:50;;;;;;;2.93;1.83;;;;;;;11.73;70.92;98921.88;5103989;27;20228;-68
2022/04/07 01:16:20;;;;;;;5.43;1.43;;;;;;;11.89;70.27;98921.59;5103354;27;20233;-68
2022/04/07 01:18:49;;;;;;;3.90;1.57;;;;;;;11.73;70.71;98911.25;5099878;27;20286;-68
2022/04/07 01:21:17;;;;;;;2.63;1.43;;;;;;;11.77;70.60;98915.22;5104511;27;20667;-68
2022/04/07 01:23:57;;;;;;;3.10;1.80;;;;;;;11.83;70.46;98911.78;5105189;28;20566;-68
2022/04/07 01:26:32;;;;;;;3.40;1.70;;;;;;;11.76;71.01;98897.63;5103618;27;20210;-66
2022/04/07 01:29:02;;;;;;;2.60;1.57;;;;;;;11.73;71.48;98900.63;5105089;27;20258;-66
2022/04/07 01:31:31;;;;;;;4.00;1.63;;;;;;;11.88;70.83;98886.25;5103267;27;20873;-68
2022/04/07 01:34:03;;;;;;;2.47;1.40;;;;;;;11.74;71.19;98881.84;5102762;28;20237;-67
2022/04/07 01:36:34;;;;;;;5.00;1.60;;;;;;;11.87;70.95;98889.13;5101298;27;20586;-68
2022/04/07 01:39:03;;;;;;;2.77;1.30;;;;;;;11.65;72.01;98883.84;5103906;27;20233;-68
2022/04/07 01:41:32;;;;;;;2.87;1.40;;;;;;;11.67;71.75;98875.69;5103320;27;20309;-67
2022/04/07 01:44:00;;;;;;;3.97;1.50;;;;;;;11.73;71.17;98868.78;5109548;27;20297;-67
2022/04/07 01:46:30;;;;;;;2.67;1.10;;;;;;;11.74;71.34;98867.75;5106878;28;20209;-67
2022/04/07 01:49:00;;;;;;;4.20;1.40;;;;;;;11.58;71.81;98867.06;5111257;27;20335;-66
2022/04/07 01:51:29;;;;;;;2.83;1.33;;;;;;;11.77;71.03;98852.31;5100235;27;20228;-66
2022/04/07 01:53:58;;;;;;;3.03;1.13;;;;;;;11.74;71.29;98851.81;5102033;28;20203;-68
2022/04/07 01:56:26;;;;;;;2.27;1.30;;;;;;;11.67;72.13;98849.97;5104209;28;20217;-67
2022/04/07 01:58:56;;;;;;;3.40;1.40;;;;;;;11.55;72.91;98851.50;5104750;27;20222;-68
2022/04/07 02:01:23;;;;;;;2.63;1.10;;;;;;;11.57;72.90;98851.31;5100411;28;20251;-67
2022/04/07 02:03:51;;;;;;;2.70;1.10;;;;;;;11.32;74.06;98850.91;5101585;28;20657;-68
2022/04/07 02:06:20;;;;;;;2.43;1.00;;;;;;;11.56;73.65;98842.53;5101792;27;20347;-67
2022/04/07 02:08:48;;;;;;;3.87;1.20;;;;;;;11.53;73.90;98842.91;5101258;27;20209;-68
2022/04/07 02:11:15;;;;;;;2.17;1.20;;;;;;;11.46;74.67;98842.03;5102032;28;20207;-66
2022/04/07 02:13:43;;;;;;;2.97;1.03;;;;;;;11.50;74.68;98842.47;5099261;27;20212;-66
2022/04/07 02:16:13;;;;;;;4.73;1.10;;;;;;;11.54;74.75;98833.94;5106861;27;20216;-67
2022/04/07 02:18:42;;;;;;;2.13;1.23;;;;;;;11.45;75.41;98827.13;5102850;27;20234;-68
2022/04/07 02:21:09;;;;;;;2.53;1.10;;;;;;;11.58;74.55;98832.53;5104419;27;20232;-68
2022/04/07 02:23:42;;;;;;;2.20;1.00;;;;;;;11.52;74.94;98827.97;5105213;28;20946;-68
2022/04/07 02:26:17;;;;;;;1.13;0.77;;;;;;;11.52;75.10;98819.22;5102105;27;20235;-67
2022/04/07 02:28:45;;;;;;;1.30;0.80;;;;;;;11.46;75.59;98826.13;5103993;27;20393;-68
2022/04/07 02:31:14;;;;;;;1.97;0.80;;;;;;;11.52;75.73;98820.03;5102907;27;20211;-68
2022/04/07 02:33:42;;;;;;;1.37;0.70;;;;;;;11.59;75.18;98815.59;5105215;27;20209;-68
2022/04/07 02:36:10;;;;;;;2.77;1.00;;;;;;;11.38;76.08;98823.59;5105400;28;20317;-67
2022/04/07 02:38:38;;;;;;;2.40;0.80;;;;;;;11.45;76.28;98813.84;5101161;28;20249;-67
2022/04/07 02:41:05;;;;;;;2.67;0.80;;;;;;;11.51;75.96;98801.66;5103096;28;20549;-68
2022/04/07 02:43:33;;;;;;;1.90;0.90;;;;;;;11.48;77.07;98807.34;5102661;28;20297;-67
2022/04/07 02:46:02;;;;;;;1.93;0.93;;;;;;;11.62;75.72;98807.22;5103740;28;20209;-67
2022/04/07 02:48:31;;;;;;;4.40;0.80;;;;;;;11.70;75.51;98796.44;5101229;28;20221;-68
2022/04/07 02:50:59;;;;;;;2.07;0.60;;;;;;;11.45;77.03;98791.81;5102327;27;20250;-67
2022/04/07 02:53:26;;;;;;;1.77;0.77;;;;;;;11.64;75.88;98797.25;5102152;28;20595;-67
2022/04/07 02:55:54;;;;;;;2.17;0.80;;;;;;;11.30;77.71;98790.09;5101909;28;20717;-67
2022/04/07 02:58:22;;;;;;;1.70;0.70;;;;;;;11.31;77.48;98791.72;5100184;28;20230;-68
2022/04/07 03:00:49;;;;;;;1.40;0.90;;;;;;;11.33;77.51;98796.84;5101622;28;20198;-67
2022/04/07 03:03:17;;;;;;;1.33;0.90;;;;;;;11.39;76.95;98793.41;5099602;28;20200;-68
2022/04/07 03:05:46;;;;;;;0.80;0.50;;;;;;;11.53;76.16;98789.00;5099780;28;20209;-68
2022/04/07 03:08:15;;;;;;;1.97;0.93;;;;;;;11.75;74.92;98792.44;5100921;28;20205;-66
2022/04/07 03:10:42;;;;;;;2.93;1.03;;;;;;;11.51;76.37;98778.59;5102284;28;20236;-68
2022/04/07 03:13:10;;;;;;;1.77;0.77;;;;;;;11.41;76.61;98780.78;5105587;28;20576;-68
2022/04/07 03:15:38;;;;;;;1.33;0.60;;;;;;;11.34;77.26;98785.22;5101858;28;20206;-68
2022/04/07 03:18:06;;;;;;;2.37;0.90;;;;;;;11.51;77.28;98775.94;5102920;28;20482;-68
2022/04/07 03:20:34;;;;;;;2.07;0.53;;;;;;;11.42;77.67;98777.09;5101655;28;20200;-67
2022/04/07 03:23:03;;;;;;;2.03;0.40;;;;;;;11.62;76.71;98778.03;5102025;28;20332;-68
2022/04/07 03:25:30;;;;;;;2.27;0.70;;;;;;;11.54;76.42;98770.22;5101346;28;20210;-68
2022/04/07 03:27:58;;;;;;;0.87;0.67;;;;;;;11.73;75.89;98775.84;5098503;28;20757;-68
2022/04/07 03:30:26;;;;;;;1.73;0.77;;;;;;;11.79;75.67;98777.72;5099120;28;20213;-68
2022/04/07 03:33:00;;;;;;;1.10;0.60;;;;;;;11.37;77.45;98763.59;5101692;28;20278;-67
2022/04/07 03:35:27;;;;;;;2.50;0.83;;;;;;;11.65;76.33;98768.88;5100192;28;20204;-67
2022/04/07 03:37:57;;;;;;;2.37;0.70;;;;;;;11.68;75.84;98760.50;5100990;28;20290;-67
2022/04/07 03:40:28;;;;;;;1.80;0.80;;;;;;;11.66;75.26;98763.34;5100268;28;20225;-67
2022/04/07 03:42:55;;;;;;;1.27;0.70;;;;;;;11.68;75.17;98764.00;5105223;28;20216;-66
2022/04/07 03:45:23;;;;;;;1.80;0.80;;;;;;;11.63;74.93;98762.91;5100331;28;20215;-67
2022/04/07 03:47:51;;;;;;;2.07;1.00;;;;;;;11.84;73.76;98754.91;5103447;28;20213;-67
2022/04/07 03:50:20;;;;;;;1.63;0.70;;;;;;;11.72;74.15;98755.63;5103503;28;20262;-67
2022/04/07 03:52:48;;;;;;;1.77;0.80;;;;;;;11.88;73.14;98761.44;5101948;28;20330;-67
2022/04/07 03:55:16;;;;;;;1.53;0.80;;;;;;;11.81;73.10;98755.28;5098006;28;20208;-70
2022/04/07 03:57:47;;;;;;;2.67;0.80;;;;;;;11.84;73.18;98760.22;5103722;27;20587;-68
2022/04/07 04:00:16;;;;;;;1.40;0.80;;;;;;;11.88;72.81;98750.00;5107445;27;20212;-67
2022/04/07 04:02:44;;;;;;;3.73;0.97;;;;;;;11.80;72.97;98760.78;5105003;27;20211;-67
2022/04/07 04:05:12;;;;;;;2.20;0.90;;;;;;;11.68;73.17;98740.09;5105143;27;20632;-67
2022/04/07 04:07:39;;;;;;;2.37;1.17;;;;;;;11.76;73.39;98736.47;5101646;27;20673;-68
2022/04/07 04:10:08;;;;;;;2.90;0.90;;;;;;;11.83;73.00;98733.84;5101036;27;20700;-67
2022/04/07 04:12:35;;;;;;;1.17;0.60;;;;;;;11.59;73.47;98735.97;5106271;27;20202;-67
2022/04/07 04:15:06;;;;;;;4.90;0.70;;;;;;;11.72;73.08;98721.91;5105935;27;20580;-67
2022/04/07 04:17:36;;;;;;;3.03;0.80;;;;;;;11.74;72.84;98716.41;5104219;27;20202;-67
2022/04/07 04:20:04;;;;;;;3.27;1.00;;;;;;;11.89;72.47;98714.47;5101985;28;20244;-67
2022/04/07 04:22:35;;;;;;;1.53;0.70;;;;;;;11.84;72.31;98706.28;5102306;27;20206;-67
2022/04/07 04:25:03;;;;;;;2.30;0.80;;;;;;;11.68;73.24;98704.75;5105062;27;20212;-66
2022/04/07 04:27:31;;;;;;;1.50;0.77;;;;;;;11.70;73.07;98695.56;5102134;27;20213;-66
2022/04/07 04:30:02;;;;;;;1.37;0.50;;;;;;;11.81;72.60;98698.69;5104338;27;20238;-66
2022/04/07 04:32:33;;;;;;;2.27;0.90;;;;;;;11.66;73.55;98704.94;5102797;27;20214;-68
2022/04/07 04:35:02;;;;;;;1.87;0.70;;;;;;;11.68;73.59;98697.63;5103353;27;20326;-69
2022/04/07 04:37:30;;;;;;;1.87;0.70;;;;;;;11.76;73.44;98693.19;5103144;27;20321;-67
2022/04/07 04:39:57;;;;;;;3.27;1.00;;;;;;;11.50;75.29;98704.47;5101900;28;20280;-68
2022/04/07 04:42:25;;;;;;;2.80;0.63;;;;;;;11.31;76.51;98698.84;5098707;27;20218;-67
2022/04/07 04:44:53;;;;;;;3.10;0.83;;;;;;;11.32;76.65;98691.72;5107486;27;20482;-67
2022/04/07 04:47:21;;;;;;;3.07;0.63;;;;;;;11.13;78.12;98692.41;5103265;27;20654;-68
2022/04/07 04:49:51;;;;;;;2.40;0.97;;;;;;;11.29;77.15;98684.97;5105609;27;20300;-68
2022/04/07 04:52:19;;;;;;;1.13;0.50;;;;;;;11.31;76.94;98695.38;5102521;28;20263;-68
2022/04/07 04:54:47;;;;;;;1.20;0.50;;;;;;;11.43;77.33;98683.22;5102771;27;20210;-67
2022/04/07 04:57:14;;;;;;;0.63;0.50;;;;;;;11.48;78.00;98683.44;5104958;27;20247;-67
2022/04/07 04:59:44;;;;;;;0.83;0.40;;;;;;;11.26;79.68;98682.69;5103834;27;20227;-68
2022/04/07 05:02:13;;;;;;;1.50;0.67;;;;;;;11.22;81.21;98677.97;5103842;27;20575;-67
2022/04/07 05:04:40;;;;;;;1.23;0.60;;;;;;;11.08;82.75;98669.09;5101384;27;20253;-67
2022/04/07 05:07:09;;;;;;;2.60;0.63;;;;;;;11.16;82.91;98670.81;5103462;27;20375;-69
2022/04/07 05:09:46;;;;;;;2.70;0.80;;;;;;;11.04;85.06;98657.28;5102312;27;20685;-69
2022/04/07 05:12:13;;;;;;;1.60;0.60;;;;;;;10.84;87.69;98665.09;5104448;27;20205;-68
2022/04/07 05:14:41;;;;;;;1.30;0.60;;;;;;;10.84;88.31;98656.31;5101104;27;20216;-68
2022/04/07 05:17:09;;;;;;;1.07;0.70;;;;;;;10.88;88.86;98658.41;5102850;27;20293;-65
2022/04/07 05:19:38;;;;;;;2.90;0.90;;;;;;;10.78;89.22;98654.44;5101011;27;20572;-63
2022/04/07 05:22:21;;;;;;;0.90;0.60;;;;;;;10.71;89.98;98651.75;5096255;27;20220;-62
2022/04/07 05:24:50;;;;;;;1.77;0.70;;;;;;;10.85;89.16;98650.81;5101514;27;20633;-64
2022/04/07 05:27:18;;;;;;;1.30;0.60;;;;;;;10.93;88.30;98642.72;5103178;27;20309;-64
2022/04/07 05:29:46;;;;;;;2.33;0.67;;;;;;;11.00;86.47;98628.66;5105061;27;20312;-65
2022/04/07 05:32:14;;;;;;;3.03;0.60;;;;;;;11.09;85.44;98630.97;5099794;27;20205;-65
2022/04/07 05:34:41;;;;;;;2.20;0.50;;;;;;;10.98;85.10;98646.63;5105410;27;20211;-64
2022/04/07 05:37:09;;;;;;;2.53;0.50;;;;;;;11.25;82.95;98637.81;5106292;27;20344;-64
2022/04/07 05:39:38;;;;;;;2.20;0.70;;;;;;;11.27;81.24;98633.91;5108562;27;20228;-63
2022/04/07 05:42:06;;;;;;;1.63;0.63;;;;;;;11.35;80.99;98624.97;5113437;27;20248;-64
2022/04/07 05:44:35;;;;;;;2.57;0.70;;;;;;;11.38;80.79;98627.25;5109284;27;20283;-65
2022/04/07 05:47:03;;;;;;;1.23;0.50;;;;;;;11.19;80.25;98627.97;5108601;27;20223;-64
2022/04/07 05:49:31;;;;;;;2.50;0.70;;;;;;;11.21;81.08;98616.16;5106666;28;20254;-64
2022/04/07 05:52:02;;;;;;;1.07;0.50;;;;;;;11.49;78.99;98618.72;5115933;27;20215;-63
2022/04/07 05:54:38;;;;;;;1.73;0.50;;;;;;;11.67;77.83;98604.88;5108078;27;20296;-64
2022/04/07 05:57:06;;;;;;;1.20;0.43;;;;;;;11.34;79.09;98604.78;5119467;27;20242;-64
2022/04/07 05:59:34;;;;;;;1.27;0.50;;;;;;;11.15;79.90;98600.22;5108172;27;20222;-64
2022/04/07 06:02:05;;;;;;;1.43;0.40;;;;;;;11.19;79.72;98596.13;5110773;27;20247;-63
2022/04/07 06:04:32;;;;;;;0.57;0.40;;;;;;;11.12;79.43;98582.03;5107580;27;20205;-64
2022/04/07 06:07:00;;;;;;;1.07;0.60;;;;;;;11.44;77.92;98573.38;5114813;27;20242;-64
2022/04/07 06:09:34;;;;;;;2.77;0.60;;;;;;;11.20;78.63;98557.97;5101452;28;20214;-65
2022/04/07 06:12:04;;;;;;;1.80;0.50;;;;;;;11.26;78.29;98565.13;5109329;27;20676;-65
2022/04/07 06:14:32;;;;;;;1.27;0.50;;;;;;;11.17;78.06;98561.03;5112905;27;20208;-69
2022/04/07 06:17:01;;;;;;;1.33;0.60;;;;;;;11.12;78.42;98555.50;5109390;27;20215;-66
2022/04/07 06:19:29;;;;;;;2.33;0.60;;;;;;;11.21;78.01;98541.88;5104586;28;20205;-66
2022/04/07 06:21:57;;;;;;;1.47;0.50;;;;;;;11.21;77.98;98541.06;5113928;27;20233;-65
2022/04/07 06:24:25;;;;;;;2.27;0.60;;;;;;;11.26;77.46;98528.00;5120302;27;20275;-64
2022/04/07 06:26:52;;;;;;;1.10;0.30;;;;;;;11.16;77.76;98540.84;5104383;27;20217;-65
2022/04/07 06:29:21;;;;;;;0.93;0.50;;;;;;;11.34;77.30;98535.81;5104984;27;20630;-65
2022/04/07 06:31:49;;;;;;;1.27;0.40;;;;;;;11.22;77.79;98534.72;5096823;27;20222;-65
2022/04/07 06:34:21;;;;;;;2.77;0.53;;;;;;;11.23;77.52;98521.28;5095538;28;20213;-66
2022/04/07 06:36:49;;;;;;;2.10;0.50;;;;;;;11.27;77.44;98511.88;5104621;27;20776;-65
2022/04/07 06:39:17;;;;;;;2.50;0.53;;;;;;;11.25;77.21;98510.47;5101199;27;20245;-66
2022/04/07 06:41:44;;;;;;;1.67;0.60;;;;;;;11.15;78.23;98499.41;5101313;28;20228;-66
2022/04/07 06:44:12;;;;;;;2.97;0.50;;;;;;;11.27;77.70;98495.16;5102697;27;20205;-65
2022/04/07 06:46:41;;;;;;;1.20;0.47;;;;;;;11.36;77.80;98488.63;5104590;28;20219;-63
2022/04/07 06:49:09;;;;;;;1.93;0.60;;;;;;;11.17;79.72;98484.13;5108828;28;20342;-64
2022/04/07 06:51:37;;;;;;;2.87;0.50;;;;;;;11.15;80.96;98489.63;5106413;28;20672;-65
2022/04/07 06:54:05;;;;;;;1.37;0.60;;;;;;;11.28;80.63;98488.81;5107701;28;20530;-65
2022/04/07 06:56:33;;;;;;;0.73;0.50;;;;;;;11.05;82.00;98473.25;5107608;27;20206;-65
2022/04/07 06:59:01;;;;;;;1.03;0.37;;;;;;;11.18;81.97;98469.81;5103300;28;20272;-65
2022/04/07 07:01:29;;;;;;;0.90;0.40;;;;;;;11.16;82.48;98475.34;5098954;28;20232;-66
2022/04/07 07:03:59;;;;;;;1.00;0.40;;;;;;;11.19;82.59;98469.63;5103577;28;20510;-64
2022/04/07 07:06:26;;;;;;;1.67;0.50;;;;;;;11.11;82.68;98461.03;5104315;28;20209;-66
2022/04/07 07:08:54;;;;;;;1.97;0.70;;;;;;;11.09;83.40;98455.09;5102775;28;20209;-65
2022/04/07 07:11:22;;;;;;;1.73;0.50;;;;;;;11.03;84.71;98447.94;5105459;28;20542;-65
2022/04/07 07:13:50;;;;;;;2.13;0.60;;;;;;;10.71;87.02;98452.13;5103111;28;20203;-65
2022/04/07 07:16:17;;;;;;;3.13;0.60;;;;;;;10.77;87.46;98428.28;5104704;28;20210;-65
2022/04/07 07:18:45;;;;;;;1.00;0.53;;;;;;;10.85;87.57;98422.81;5102107;28;20727;-65
2022/04/07 07:21:14;;;;;;;1.73;0.60;;;;;;;10.89;87.18;98425.91;5103755;28;20228;-65
2022/04/07 07:23:42;;;;;;;3.40;0.70;;;;;;;10.68;87.78;98428.66;5105565;28;20204;-64
2022/04/07 07:26:11;;;;;;;1.77;0.40;;;;;;;10.69;87.94;98404.63;5103579;28;20707;-65
2022/04/07 07:28:43;;;;;;;0.67;0.40;;;;;;;10.60;88.38;98405.81;5103041;28;20564;-64
2022/04/07 07:31:16;;;;;;;1.47;0.60;;;;;;;10.46;89.52;98404.94;5107192;28;20296;-65
2022/04/07 07:33:44;;;;;;;1.97;0.50;;;;;;;10.55;89.36;98389.69;5113648;27;20301;-65
2022/04/07 07:36:11;;;;;;;1.53;0.53;;;;;;;10.71;88.24;98386.69;5117004;27;20225;-64
2022/04/07 07:38:40;;;;;;;1.63;0.50;;;;;;;10.62;88.76;98374.63;5102967;27;20301;-64
2022/04/07 07:41:08;;;;;;;1.30;0.60;;;;;;;10.55;88.96;98377.22;5104963;27;20237;-65
2022/04/07 07:43:36;;;;;;;1.07;0.50;;;;;;;10.60;89.09;98384.59;5105046;27;20219;-67
2022/04/07 07:46:05;;;;;;;1.40;0.90;;;;;;;10.54;89.62;98382.75;5105114;27;20626;-64
2022/04/07 07:48:33;;;;;;;3.13;0.70;;;;;;;10.56;89.21;98380.69;5107075;27;20214;-65
2022/04/07 07:51:01;;;;;;;2.80;0.50;;;;;;;10.59;89.35;98376.84;5107043;27;20205;-65
2022/04/07 07:53:29;;;;;;;2.57;1.00;;;;;;;10.53;89.99;98381.13;5104021;28;20262;-65
2022/04/07 07:55:58;;;;;;;1.83;0.87;;;;;;;10.60;89.71;98366.06;5106253;27;20287;-65
2022/04/07 07:58:26;;;;;;;2.87;1.40;;;;;;;10.60;89.42;98376.66;5110052;27;20204;-65
2022/04/07 08:00:54;;;;;;;1.60;0.63;;;;;;;10.61;89.91;98359.75;5109269;27;20232;-65
2022/04/07 08:03:22;;;;;;;1.50;0.70;;;;;;;10.61;89.67;98369.53;5109851;28;20204;-65
2022/04/07 08:05:50;;;;;;;1.43;0.80;;;;;;;10.51;91.48;98336.25;5108875;28;20243;-65
2022/04/07 08:08:18;;;;;;;1.73;0.90;;;;;;;10.46;93.71;98343.19;5106194;27;20203;-65
2022/04/07 08:10:45;;;;;;;2.27;0.97;;;;;;;10.48;94.52;98335.84;5104563;27;20205;-65
2022/04/07 08:13:14;;;;;;;1.83;0.90;;;;;;;10.42;94.48;98326.84;5111441;27;20205;-66
2022/04/07 08:15:42;;;;;;;1.83;1.00;;;;;;;10.38;95.24;98327.47;5112160;27;20619;-65
2022/04/07 08:18:10;;;;;;;1.30;0.70;;;;;;;10.46;94.40;98348.50;5107895;27;20220;-64
2022/04/07 08:20:38;;;;;;;3.77;1.00;;;;;;;10.34;95.58;98323.56;5106923;28;20411;-64
2022/04/07 08:23:06;;;;;;;2.50;0.77;;;;;;;10.37;95.87;98320.53;5112055;27;20232;-65
2022/04/07 08:25:34;;;;;;;1.70;0.80;;;;;;;10.42;95.95;98326.03;5117095;27;20199;-65
2022/04/07 08:28:02;;;;;;;2.73;0.90;;;;;;;10.33;97.00;98319.28;5124592;27;20201;-65
2022/04/07 08:30:34;;;;;;;2.27;0.70;;;;;;;10.41;96.17;98311.97;5117295;27;20209;-65
2022/04/07 08:33:02;;;;;;;1.90;0.77;;;;;;;10.44;95.86;98308.94;5105542;27;20568;-65
2022/04/07 08:35:30;;;;;;;0.73;0.60;;;;;;;10.51;95.49;98316.91;5107470;27;20202;-63
2022/04/07 08:37:58;;;;;;;2.60;0.70;;;;;;;10.45;95.83;98297.34;5105080;27;20234;-65
2022/04/07 08:40:26;;;;;;;1.87;0.70;;;;;;;10.45;96.12;98305.28;5107831;27;20298;-65
2022/04/07 08:42:53;;;;;;;1.97;0.73;;;;;;;10.46;96.02;98300.81;5118651;27;20241;-64
2022/04/07 08:45:21;;;;;;;1.63;0.70;;;;;;;10.46;96.21;98282.25;5128533;27;20216;-63
2022/04/07 08:47:51;;;;;;;1.70;0.60;;;;;;;10.51;96.30;98287.75;5122929;27;20291;-64
2022/04/07 08:50:22;;;;;;;3.20;0.93;;;;;;;10.59;95.99;98276.16;5125183;27;20705;-64
2022/04/07 08:52:51;;;;;;;1.93;0.80;;;;;;;10.59;95.54;98260.25;5116328;27;20228;-65
2022/04/07 08:55:18;;;;;;;2.43;0.87;;;;;;;10.62;95.63;98265.16;5127176;27;20266;-66
2022/04/07 08:57:46;;;;;;;4.67;1.10;;;;;;;10.69;94.64;98273.94;5125966;27;20231;-64
2022/04/07 09:00:16;;;;;;;3.13;0.77;;;;;;;10.65;95.25;98262.91;5127467;27;20543;-64
2022/04/07 09:02:44;;;;;;;1.90;0.70;;;;;;;10.66;94.87;98277.78;5117608;27;20313;-64
2022/04/07 09:05:13;;;;;;;1.73;0.83;;;;;;;10.82;94.31;98272.09;5122763;27;20239;-62
2022/04/07 09:07:43;;;;;;;3.23;0.97;;;;;;;10.74;94.31;98263.53;5115237;27;20239;-62
2022/04/07 09:10:11;;;;;;;2.17;0.80;;;;;;;10.73;94.76;98260.06;5121443;27;20216;-63
2022/04/07 09:12:41;;;;;;;1.80;0.60;;;;;;;10.79;94.14;98269.88;5119077;27;20210;-64
2022/04/07 09:15:09;;;;;;;1.50;0.63;;;;;;;10.83;94.03;98249.88;5121139;27;20261;-65
2022/04/07 09:17:50;;;;;;;1.63;0.60;;;;;;;10.79;94.26;98240.72;5126551;27;20296;-65
2022/04/07 09:20:20;;;;;;;1.50;0.80;;;;;;;10.88;94.36;98233.38;5113320;27;20214;-63
2022/04/07 09:22:56;;;;;;;1.73;0.60;;;;;;;11.03;93.19;98214.59;5118375;27;20224;-64
2022/04/07 09:25:24;;;;;;;4.57;0.83;;;;;;;10.98;93.10;98222.34;5130238;27;20270;-64
2022/04/07 09:27:51;;;;;;;1.40;0.80;;;;;;;11.02;92.30;98218.25;5120495;27;20305;-64
2022/04/07 09:30:20;;;;;;;2.23;0.70;;;;;;;11.09;91.99;98205.81;5119190;27;20202;-62
2022/04/07 09:32:48;;;;;;;2.07;0.70;;;;;;;11.10;92.75;98210.09;5119162;27;20208;-61
2022/04/07 09:35:16;;;;;;;0.97;0.60;;;;;;;11.07;92.77;98205.22;5122405;27;20272;-62
2022/04/07 09:37:45;;;;;;;1.07;0.50;;;;;;;11.33;91.15;98191.91;5118469;27;20586;-61
2022/04/07 09:40:16;;;;;;;1.60;0.60;;;;;;;11.52;86.14;98204.28;5109079;27;20240;-64
2022/04/07 09:42:44;;;;;;;0.20;0.20;;;;;;;11.76;82.89;98212.63;5117648;27;20228;-62
2022/04/07 09:45:13;;;;;;;0.90;0.20;;;;;;;11.86;82.63;98197.88;5110770;28;20215;-65
2022/04/07 09:47:43;;;;;;;0.83;0.40;;;;;;;11.92;82.73;98199.69;5112269;27;20247;-64
2022/04/07 09:50:20;;;;;;;0.73;0.23;;;;;;;11.95;81.66;98199.28;5110055;27;20228;-64
2022/04/07 09:52:57;;;;;;;0.83;0.33;;;;;;;12.04;80.47;98195.34;5108754;27;20631;-62
2022/04/07 09:55:28;;;;;;;2.10;0.20;;;;;;;12.15;80.59;98193.84;5109556;27;20705;-62
2022/04/07 09:57:56;;;;;;;1.13;0.20;;;;;;;12.23;80.13;98174.16;5113449;27;20202;-63
2022/04/07 10:00:34;;;;;;;0.67;0.20;;;;;;;12.15;82.20;98177.88;5109690;28;20213;-62
2022/04/07 10:03:03;;;;;;;0.60;0.20;;;;;;;12.24;82.47;98165.97;5109784;27;20234;-64
2022/04/07 10:05:32;;;;;;;1.40;0.30;;;;;;;12.27;82.55;98160.25;5107188;27;20259;-65
2022/04/07 10:08:03;;;;;;;0.80;0.30;;;;;;;12.39;82.92;98147.91;5106792;27;20590;-66
2022/04/07 10:10:31;;;;;;;1.03;0.20;;;;;;;12.40;83.32;98140.75;5111528;27;20208;-65
2022/04/07 10:12:59;;;;;;;0.77;0.20;;;;;;;12.44;82.97;98140.09;5107929;27;20203;-64
2022/04/07 10:15:27;;;;;;;1.87;0.40;;;;;;;12.41;84.07;98139.69;5106207;28;20214;-64
2022/04/07 10:18:04;;;;;;;1.40;0.40;;;;;;;12.46;83.70;98126.59;5105679;28;20212;-64
2022/04/07 10:20:38;;;;;;;0.80;0.30;;;;;;;12.41;83.29;98098.00;5098635;28;20228;-64
2022/04/07 10:23:28;;;;;;;0.40;0.20;;;;;;;12.52;82.60;98100.97;5105804;27;20226;-64
2022/04/07 10:25:59;;;;;;;1.17;0.30;;;;;;;12.66;81.87;98102.50;5104561;27;20196;-63
2022/04/07 10:28:27;;;;;;;0.20;0.10;;;;;;;12.77;79.72;98083.16;5107294;27;20225;-64
2022/04/07 10:31:13;;;;;;;0.33;0.20;;;;;;;12.74;79.86;98095.06;5109279;28;20712;-63
2022/04/07 10:33:43;;;;;;;0.43;0.20;;;;;;;12.80;80.49;98101.34;5110777;27;20256;-64
2022/04/07 10:36:18;;;;;;;0.30;0.20;;;;;;;12.86;80.46;98073.84;5109327;27;20756;-64
2022/04/07 10:41:47;;;;;;;4.00;0.40;;;;;;;12.97;78.72;98081.13;5107175;27;20566;-62
2022/04/07 10:44:16;;;;;;;1.57;0.30;;;;;;;12.92;78.26;98072.19;5116191;27;20204;-63
2022/04/07 10:46:44;;;;;;;0.10;0.10;;;;;;;13.01;77.24;98055.72;5108679;27;20741;-63
2022/04/07 10:49:13;;;;;;;0.83;0.10;;;;;;;13.07;76.60;98073.44;5107838;28;20956;-63
2022/04/07 10:51:42;;;;;;;0.20;0.10;;;;;;;13.03;77.27;98069.56;5120171;27;20294;-62
2022/04/07 10:54:12;;;;;;;2.00;0.40;;;;;;;13.02;77.38;98062.63;5112213;27;20339;-63
2022/04/07 10:56:46;;;;;;;3.43;0.50;;;;;;;13.06;77.27;98045.22;5115281;27;20237;-60
2022/04/07 10:59:21;;;;;;;1.77;0.20;;;;;;;13.13;77.53;98037.97;5107935;28;20199;-61
2022/04/07 11:02:04;;;;;;;2.07;0.23;;;;;;;13.23;77.56;98037.47;5110663;28;20351;-62
2022/04/07 11:04:44;;;;;;;0.87;0.30;;;;;;;13.44;77.00;98014.88;5109720;28;20631;-62
2022/04/07 11:07:19;;;;;;;0.50;0.00;;;;;;;13.39;76.67;98026.19;5104632;28;20675;-64
2022/04/07 11:09:52;;;;;;;0.30;0.20;;;;;;;13.52;75.71;98014.56;5108637;28;20207;-62
2022/04/07 11:12:24;;;;;;;2.87;0.27;;;;;;;13.50;75.70;98016.63;5112117;28;20211;-64
2022/04/07 11:14:53;;;;;;;0.40;0.20;;;;;;;13.52;75.54;97998.59;5110535;28;20206;-62
2022/04/07 11:17:43;;;;;;;0.70;0.10;;;;;;;13.54;75.45;97991.19;5108227;28;20654;-63
2022/04/07 11:20:15;;;;;;;0.13;0.13;;;;;;;13.83;74.67;97977.00;5109342;28;20213;-64
2022/04/07 11:22:47;;;;;;;0.20;0.10;;;;;;;13.84;74.88;97980.50;5103111;28;20575;-65
2022/04/07 11:25:21;;;;;;;0.63;0.23;;;;;;;13.98;74.38;97965.13;5104376;28;20208;-65
2022/04/07 11:28:03;;;;;;;3.50;0.20;;;;;;;14.04;73.41;97954.34;5103627;28;20202;-66
2022/04/07 11:30:40;;;;;;;1.43;0.17;;;;;;;13.91;72.38;97959.88;5104391;28;20304;-64
2022/04/07 11:33:26;;;;;;;1.47;0.10;;;;;;;13.81;74.30;97976.41;5107131;28;20597;-65
2022/04/07 11:36:28;;;;;;;1.50;0.33;;;;;;;14.11;73.24;97981.69;5109745;28;20216;-64
2022/04/07 11:38:57;;;;;;;0.20;0.20;;;;;;;14.56;71.31;97962.47;5100683;28;20282;-66
2022/04/07 11:41:33;;;;;;;0.10;0.10;;;;;;;15.43;67.49;97955.09;5103722;28;20235;-65
2022/04/07 11:44:11;;;;;;;0.77;0.40;;;;;;;15.71;65.98;97954.28;5104374;28;20595;-62
2022/04/07 11:46:43;;;;;;;1.20;0.20;;;;;;;16.88;63.14;97928.22;5107266;28;20244;-60
2022/04/07 11:49:12;;;;;;;0.57;0.10;;;;;;;15.53;66.65;97941.13;5107892;28;20213;-60